Time;durP1;ratioP1;P1;durP2;ratioP2;P2;SDS_P1;SDS_P2;PMS_P1;PMS_P2;Temp;Humidity;BMP_temperature;BMP_pressure;BME280_temperature;BME280_humidity;BME280_pressure;Samples;Min_cycle;Max_cycle;Signal;HPM_P1;HPM_P2
2022/09/10 00:00:59;;;;;;;7.25;3.80;;;21.20;99.90;;;;;;5011924;28;20021;-65
2022/09/10 00:03:26;;;;;;;4.82;4.25;;;21.10;99.90;;;;;;5013456;28;20422;-64
2022/09/10 00:05:52;;;;;;;8.25;3.97;;;21.10;99.90;;;;;;5013538;28;20076;-64
2022/09/10 00:08:19;;;;;;;7.13;4.55;;;21.10;99.90;;;;;;5013341;28;20042;-64
2022/09/10 00:10:47;;;;;;;10.32;4.57;;;21.00;99.90;;;;;;5013175;28;20041;-64
2022/09/10 00:13:17;;;;;;;10.07;4.35;;;21.30;99.90;;;;;;5011898;28;20053;-64
2022/09/10 00:15:50;;;;;;;6.35;3.28;;;21.30;99.90;;;;;;5013391;28;20030;-64
2022/09/10 00:18:18;;;;;;;8.35;3.95;;;21.50;99.90;;;;;;5013741;28;20034;-64
2022/09/10 00:20:49;;;;;;;7.40;3.97;;;21.60;99.90;;;;;;5011983;28;20359;-64
2022/09/10 00:23:16;;;;;;;;;;;21.50;99.90;;;;;;5013785;28;20037;-64
2022/09/10 00:25:42;;;;;;;8.50;3.83;;;21.60;99.90;;;;;;5013360;28;19909;-64
2022/09/10 00:28:08;;;;;;;5.38;3.03;;;21.70;99.90;;;;;;5013138;28;20096;-64
2022/09/10 00:30:40;;;;;;;4.28;3.08;;;21.80;99.90;;;;;;5013270;28;20387;-64
2022/09/10 00:33:05;;;;;;;5.03;3.00;;;21.90;99.90;;;;;;5013553;28;19909;-64
2022/09/10 00:35:32;;;;;;;5.88;3.85;;;21.90;99.90;;;;;;5013485;28;20371;-64
2022/09/10 00:37:58;;;;;;;5.68;3.30;;;21.80;99.90;;;;;;5013120;28;20037;-64
2022/09/10 00:40:24;;;;;;;4.10;3.20;;;21.70;99.90;;;;;;5013089;28;20026;-64
2022/09/10 00:42:53;;;;;;;6.15;3.38;;;21.90;99.90;;;;;;5013146;28;20037;-64
2022/09/10 00:45:32;;;;;;;5.65;3.38;;;21.90;99.90;;;;;;5013127;28;20030;-64
2022/09/10 00:48:24;;;;;;;6.40;3.85;;;22.00;99.90;;;;;;5013012;28;20045;-64
2022/09/10 00:50:50;;;;;;;7.47;3.17;;;21.70;99.90;;;;;;5013112;28;20113;-64
2022/09/10 00:53:22;;;;;;;3.17;2.97;;;22.00;99.90;;;;;;5045579;28;20037;-64
2022/09/10 00:55:52;;;;;;;5.38;3.00;;;22.00;99.90;;;;;;5016891;28;20030;-64
2022/09/10 00:58:21;;;;;;;4.25;3.50;;;22.00;99.90;;;;;;5016865;28;20474;-64
2022/09/10 01:00:47;;;;;;;4.88;3.03;;;21.90;99.90;;;;;;5016491;28;20449;-64
2022/09/10 01:03:15;;;;;;;3.60;3.20;;;21.90;99.90;;;;;;5016714;28;20101;-64
2022/09/10 01:05:44;;;;;;;6.95;3.38;;;22.00;99.90;;;;;;5016702;28;20065;-65
2022/09/10 01:08:14;;;;;;;4.03;3.17;;;21.90;99.90;;;;;;5016350;28;20378;-65
2022/09/10 01:11:07;;;;;;;9.07;3.03;;;21.90;99.90;;;;;;5048378;28;20022;-63
2022/09/10 01:13:54;;;;;;;7.30;3.58;;;21.90;99.90;;;;;;5022608;28;20045;-64
2022/09/10 01:16:37;;;;;;;4.38;3.88;;;21.90;99.90;;;;;;5036262;28;20083;-64
2022/09/10 01:19:21;;;;;;;7.72;4.13;;;21.80;99.90;;;;;;5018503;28;20029;-63
2022/09/10 01:22:08;;;;;;;6.47;3.38;;;21.70;99.90;;;;;;5018428;28;20022;-64
2022/09/10 01:25:07;;;;;;;5.35;3.22;;;21.80;99.90;;;;;;5035937;28;20104;-64
2022/09/10 01:27:41;;;;;;;5.78;4.43;;;21.80;99.90;;;;;;5035743;28;20034;-64
2022/09/10 01:30:21;;;;;;;8.27;3.28;;;21.70;99.90;;;;;;5036002;28;20023;-64
2022/09/10 01:32:51;;;;;;;5.85;3.95;;;21.70;99.90;;;;;;5035925;28;20138;-64
2022/09/10 01:35:22;;;;;;;4.40;3.30;;;21.70;99.90;;;;;;5036185;28;20470;-64
2022/09/10 01:37:56;;;;;;;7.38;4.35;;;21.70;99.90;;;;;;5035859;28;20055;-64
2022/09/10 01:40:28;;;;;;;8.80;4.03;;;21.60;99.90;;;;;;5017983;28;20378;-64
2022/09/10 01:43:14;;;;;;;3.80;3.50;;;21.70;99.90;;;;;;5018025;28;20028;-64
2022/09/10 01:46:18;;;;;;;6.63;4.47;;;21.40;99.90;;;;;;5034949;28;20049;-66
2022/09/10 01:49:13;;;;;;;8.40;4.50;;;21.40;99.90;;;;;;5035629;28;20037;-66
2022/09/10 01:51:47;;;;;;;11.57;6.55;;;21.20;99.90;;;;;;5035336;28;20539;-66
2022/09/10 01:54:35;;;;;;;17.27;10.57;;;21.10;99.90;;;;;;5035582;28;20021;-66
2022/09/10 01:57:20;;;;;;;10.95;7.28;;;;;;;;;;5035469;28;20040;-66
2022/09/10 02:00:10;;;;;;;16.48;11.35;;;;;;;;;;5035438;28;20034;-66
2022/09/10 02:02:40;;;;;;;34.95;16.48;;;;;;;;;;5051018;28;20437;-66
2022/09/10 02:05:08;;;;;;;28.93;15.50;;;;;;;;;;5034135;28;20544;-65
2022/09/10 02:07:35;;;;;;;37.40;21.13;;;;;;;;;;5035197;28;20037;-66
2022/09/10 02:10:07;;;;;;;37.22;19.40;;;21.00;99.90;;;;;;5035254;28;20096;-66
2022/09/10 02:12:33;;;;;;;;;;;20.50;99.90;;;;;;5035667;28;20378;-66
2022/09/10 02:15:00;;;;;;;31.50;17.15;;;20.70;99.90;;;;;;5016949;28;19921;-65
2022/09/10 02:17:32;;;;;;;36.25;22.83;;;;;;;;;;5035062;28;20553;-65
2022/09/10 02:20:00;;;;;;;41.92;25.23;;;20.80;99.90;;;;;;5035036;28;20029;-65
2022/09/10 02:22:30;;;;;;;42.50;28.15;;;20.60;99.90;;;;;;5035025;28;20022;-65
2022/09/10 02:24:56;;;;;;;48.22;29.17;;;;;;;;;;5034982;28;20466;-65
2022/09/10 02:27:23;;;;;;;45.95;29.02;;;;;;;;;;5034870;28;20499;-65
2022/09/10 02:29:49;;;;;;;49.35;29.10;;;;;;;;;;5050206;28;20389;-64
2022/09/10 02:32:16;;;;;;;44.35;27.42;;;;;;;;;;5034805;28;20481;-64
2022/09/10 02:34:42;;;;;;;42.67;26.67;;;;;;;;;;5034817;28;20031;-64
2022/09/10 02:37:08;;;;;;;39.88;27.67;;;;;;;;;;5049741;28;20041;-64
2022/09/10 02:39:34;;;;;;;45.08;28.08;;;;;;;;;;5034415;28;20467;-64
2022/09/10 02:42:01;;;;;;;44.55;27.98;;;;;;;;;;5034604;28;20048;-64
2022/09/10 02:44:27;;;;;;;47.47;28.45;;;;;;;;;;5034583;28;20044;-63
2022/09/10 02:46:54;;;;;;;46.45;29.17;;;;;;;;;;5034506;28;20445;-63
2022/09/10 02:49:20;;;;;;;50.13;30.77;;;;;;;;;;5034495;28;20029;-65
2022/09/10 02:51:49;;;;;;;48.28;29.60;;;;;;;;;;5034424;28;20107;-65
2022/09/10 02:54:16;;;;;;;50.08;29.35;;;;;;;;;;5034386;28;20053;-65
2022/09/10 02:56:42;;;;;;;50.30;29.63;;;;;;;;;;5049559;28;20029;-65
2022/09/10 02:59:08;;;;;;;45.42;27.98;;;;;;;;;;5049530;28;20112;-64
2022/09/10 03:01:37;;;;;;;37.05;25.40;;;;;;;;;;5049508;28;20021;-65
2022/09/10 03:04:04;;;;;;;36.83;22.58;;;;;;;;;;5034143;28;20409;-65
2022/09/10 03:06:30;;;;;;;42.95;26.50;;;;;;;;;;5034161;28;20037;-65
2022/09/10 03:08:56;;;;;;;51.25;29.35;;;;;;;;;;5034105;28;20021;-65
2022/09/10 03:11:26;;;;;;;44.63;26.08;;;;;;;;;;5034100;28;20036;-65
2022/09/10 03:13:52;;;;;;;75.85;28.08;;;;;;;;;;5045516;28;20050;-65
2022/09/10 03:16:19;;;;;;;57.28;26.88;;;;;;;;;;5013887;28;20088;-65
2022/09/10 03:18:45;;;;;;;51.50;26.67;;;;;;;;;;5014192;28;20081;-65
2022/09/10 03:21:17;;;;;;;50.10;27.17;;;;;;;;;;5012879;28;20877;-65
2022/09/10 03:23:45;;;;;;;54.78;28.15;;;;;;;;;;5014124;28;20030;-65
2022/09/10 03:26:13;;;;;;;45.70;26.58;;;;;;;;;;5012506;28;20025;-65
2022/09/10 03:28:39;;;;;;;46.05;25.25;;;;;;;;;;5014023;28;20022;-65
2022/09/10 03:31:05;;;;;;;48.30;24.67;;;;;;;;;;5014233;28;20030;-65
2022/09/10 03:33:32;;;;;;;39.33;24.63;;;;;;;;;;5012656;28;20466;-65
2022/09/10 03:35:59;;;;;;;49.33;26.65;;;;;;;;;;5013972;28;20029;-63
2022/09/10 03:38:26;;;;;;;45.63;25.92;;;;;;;;;;5013875;28;20037;-63
2022/09/10 03:41:00;;;;;;;43.70;25.00;;;;;;;;;;5013835;28;20022;-64
2022/09/10 03:43:27;;;;;;;45.40;24.83;;;;;;;;;;5013869;28;20080;-64
2022/09/10 03:45:54;;;;;;;44.70;23.90;;;;;;;;;;5012517;28;20038;-64
2022/09/10 03:48:21;;;;;;;40.42;23.65;;;;;;;;;;5013639;28;20183;-65
2022/09/10 03:50:50;;;;;;;42.15;23.23;;;;;;;;;;5013699;28;20030;-65
2022/09/10 03:53:17;;;;;;;39.70;22.10;;;;;;;;;;5013652;28;20036;-65
2022/09/10 03:55:46;;;;;;;39.10;22.13;;;;;;;;;;5012373;28;20046;-64
2022/09/10 03:58:13;;;;;;;41.30;23.02;;;;;;;;;;5012297;28;20542;-63
2022/09/10 04:00:39;;;;;;;41.90;23.65;;;;;;;;;;5013527;28;20109;-64
2022/09/10 04:03:05;;;;;;;50.95;25.70;;;;;;;;;;5013481;28;20117;-64
2022/09/10 04:05:34;;;;;;;48.97;26.50;;;;;;;;;;5013759;28;20022;-64
2022/09/10 04:08:01;;;;;;;60.00;28.15;;;;;;;;;;5012120;28;20060;-63
2022/09/10 04:10:30;;;;;;;55.90;28.45;;;;;;;;;;5013403;28;20079;-64
2022/09/10 04:12:56;;;;;;;57.63;28.13;;;;;;;;;;5014209;28;20025;-64
2022/09/10 04:15:23;;;;;;;61.97;27.48;;;;;;;;;;5033390;28;20029;-63
2022/09/10 04:17:50;;;;;;;44.90;25.83;;;;;;;;;;5033084;28;20025;-63
2022/09/10 04:20:18;;;;;;;58.72;26.00;;;;;;;;;;5033005;28;20120;-63
2022/09/10 04:22:45;;;;;;;51.45;26.85;;;;;;;;;;5032957;28;20018;-63
2022/09/10 04:25:12;;;;;;;51.30;26.63;;;;;;;;;;5048254;28;20037;-63
2022/09/10 04:27:38;;;;;;;48.65;25.20;;;;;;;;;;5032941;28;20029;-64
2022/09/10 04:30:05;;;;;;;49.70;25.92;;;;;;;;;;5052249;28;20030;-64
2022/09/10 04:32:31;;;;;;;52.47;26.05;;;;;;;;;;5037017;28;20479;-64
2022/09/10 04:34:57;;;;;;;45.25;26.17;;;;;;;;;;5052240;28;20053;-65
2022/09/10 04:37:24;;;;;;;54.63;27.77;;;;;;;;;;5036763;28;20482;-62
2022/09/10 04:39:50;;;;;;;51.85;28.20;;;;;;;;;;5036691;28;20025;-63
2022/09/10 04:42:19;;;;;;;57.78;27.25;;;;;;;;;;5052123;28;20075;-63
2022/09/10 04:44:45;;;;;;;49.80;26.92;;;;;;;;;;5036838;28;20045;-62
2022/09/10 04:47:12;;;;;;;47.83;25.25;;;;;;;;;;5035667;28;20030;-62
2022/09/10 04:49:38;;;;;;;51.67;25.35;;;;;;;;;;5036946;28;20033;-62
2022/09/10 04:52:04;;;;;;;36.88;22.13;;;;;;;;;;5036723;28;20030;-62
2022/09/10 04:54:32;;;;;;;34.17;20.13;;;;;;;;;;5036701;28;20063;-62
2022/09/10 04:56:59;;;;;;;31.77;19.17;;;;;;;;;;5036637;28;20044;-62
2022/09/10 04:59:28;;;;;;;27.35;18.38;;;;;;;;;;5036347;28;20022;-62
2022/09/10 05:01:54;;;;;;;31.85;17.70;;;;;;;;;;5035997;28;20027;-62
2022/09/10 05:04:20;;;;;;;22.67;15.93;;;;;;;;;;5035706;28;20347;-62
2022/09/10 05:06:49;;;;;;;22.38;15.45;;;;;;;;;;5035941;28;20037;-62
2022/09/10 05:09:19;;;;;;;26.08;17.40;;;;;;;;;;5035907;28;20029;-62
2022/09/10 05:11:48;;;;;;;21.95;13.25;;;;;;;;;;5048693;28;20381;-61
2022/09/10 05:14:15;;;;;;;15.35;9.85;;;;;;;;;;5050685;28;20045;-62
2022/09/10 05:16:42;;;;;;;12.05;9.68;;;;;;;;;;5035773;28;20128;-61
2022/09/10 05:19:08;;;;;;;14.95;9.38;;;;;;;;;;5051564;28;20025;-62
2022/09/10 05:21:34;;;;;;;9.90;7.18;;;;;;;;;;5051489;28;20026;-62
2022/09/10 05:24:00;;;;;;;8.73;6.72;;;;;;;;;;5051212;28;20029;-62
2022/09/10 05:26:26;;;;;;;10.65;6.30;;;;;;;;;;5035985;28;20034;-62
2022/09/10 05:28:53;;;;;;;5.80;4.20;;;;;;;;;;5051330;28;20060;-62
2022/09/10 05:31:20;;;;;;;7.97;5.03;;;;;;;;;;5035947;28;20017;-62
2022/09/10 05:33:46;;;;;;;7.22;4.70;;;;;;;;;;5035927;28;20379;-62
2022/09/10 05:36:13;;;;;;;7.43;4.38;;;;;;;;;;5035942;28;20028;-62
2022/09/10 05:38:39;;;;;;;6.63;3.80;;;;;;;;;;5035769;28;20025;-62
2022/09/10 05:41:09;;;;;;;6.30;3.50;;;;;;;;;;5050941;28;20026;-62
2022/09/10 05:43:35;;;;;;;8.45;3.83;;;;;;;;;;5035735;28;20462;-62
2022/09/10 05:46:01;;;;;;;5.80;4.22;;;;;;;;;;5035386;28;20390;-62
2022/09/10 05:48:28;;;;;;;7.25;4.30;;;;;;;;;;5050979;28;20041;-62
2022/09/10 05:50:54;;;;;;;7.32;4.38;;;;;;;;;;5050400;28;20469;-62
2022/09/10 05:53:20;;;;;;;9.80;4.20;;;20.40;99.90;;;;;;5033265;28;20030;-62
2022/09/10 05:55:46;;;;;;;5.25;3.63;;;19.90;99.90;;;;;;5035094;28;20362;-62
2022/09/10 05:58:15;;;;;;;10.68;4.38;;;19.90;99.90;;;;;;5017375;28;20030;-63
2022/09/10 06:00:44;;;;;;;7.82;3.60;;;19.90;99.90;;;;;;5035382;28;20032;-62
2022/09/10 06:03:10;;;;;;;3.05;2.30;;;19.90;99.90;;;;;;5017214;28;20030;-62
2022/09/10 06:05:36;;;;;;;1.85;1.73;;;19.80;99.90;;;;;;5035124;28;20031;-62
2022/09/10 06:08:02;;;;;;;4.00;2.45;;;19.80;99.90;;;;;;5035023;28;20037;-62
2022/09/10 06:10:28;;;;;;;3.80;1.92;;;19.90;99.90;;;;;;5034766;28;20463;-62
2022/09/10 06:12:54;;;;;;;4.70;2.20;;;19.90;99.90;;;;;;5016641;28;20083;-62
2022/09/10 06:15:20;;;;;;;3.83;2.25;;;20.00;99.90;;;;;;5034799;28;20124;-62
2022/09/10 06:17:46;;;;;;;2.45;2.25;;;20.10;99.90;;;;;;5034671;28;20029;-62
2022/09/10 06:20:12;;;;;;;5.60;2.97;;;20.20;99.90;;;;;;5035136;28;20029;-62
2022/09/10 06:22:40;;;;;;;4.82;2.38;;;20.30;99.90;;;;;;5034783;28;20033;-62
2022/09/10 06:25:07;;;;;;;3.80;2.83;;;;;;;;;;5034594;28;20026;-61
2022/09/10 06:27:33;;;;;;;6.13;2.40;;;20.10;99.90;;;;;;5034041;28;20033;-61
2022/09/10 06:29:59;;;;;;;4.35;1.95;;;19.70;99.90;;;;;;5034595;28;20033;-62
2022/09/10 06:32:25;;;;;;;3.40;1.98;;;19.60;99.90;;;;;;5034838;28;20025;-62
2022/09/10 06:34:50;;;;;;;1.90;1.80;;;19.50;99.90;;;;;;5016933;28;20120;-62
2022/09/10 06:37:17;;;;;;;4.28;2.80;;;19.50;99.90;;;;;;5034824;28;20057;-63
2022/09/10 06:39:43;;;;;;;3.20;2.40;;;19.60;99.90;;;;;;5034732;28;20090;-63
2022/09/10 06:42:09;;;;;;;9.35;2.47;;;19.70;99.90;;;;;;5034325;28;20053;-63
2022/09/10 06:44:35;;;;;;;3.95;2.92;;;;;;;;;;5034639;28;20025;-67
2022/09/10 06:47:01;;;;;;;7.53;2.20;;;;;;;;;;5034495;28;20038;-70
2022/09/10 06:49:30;;;;;;;3.03;2.08;;;;;;;;;;5034538;28;20068;-66
2022/09/10 06:51:56;;;;;;;4.22;2.03;;;;;;;;;;5049038;28;20033;-69
2022/09/10 06:54:24;;;;;;;3.83;2.00;;;;;;;;;;5034383;28;20025;-69
2022/09/10 06:56:50;;;;;;;3.28;2.22;;;;;;;;;;5034360;28;20099;-69
2022/09/10 06:59:17;;;;;;;2.45;1.50;;;19.90;99.90;;;;;;5034617;28;20018;-70
2022/09/10 07:01:43;;;;;;;1.60;1.50;;;;;;;;;;5032336;28;20212;-70
2022/09/10 07:04:10;;;;;;;1.70;1.33;;;;;;;;;;5033408;28;20481;-69
2022/09/10 07:06:36;;;;;;;5.82;2.10;;;;;;;;;;5046962;28;20036;-65
2022/09/10 07:09:03;;;;;;;2.63;1.90;;;;;;;;;;5033303;28;20072;-64
2022/09/10 07:11:30;;;;;;;4.15;1.95;;;;;;;;;;5033500;28;20029;-65
2022/09/10 07:13:58;;;;;;;2.08;1.90;;;;;;;;;;5048028;28;20055;-67
2022/09/10 07:16:25;;;;;;;2.95;2.30;;;;;;;;;;5033532;28;20022;-68
2022/09/10 07:18:53;;;;;;;4.68;1.80;;;;;;;;;;5032197;28;20532;-67
2022/09/10 07:21:20;;;;;;;3.58;1.67;;;21.40;99.90;;;;;;5033483;28;20500;-67
2022/09/10 07:23:50;;;;;;;3.45;1.67;;;;;;;;;;5033508;28;20132;-68
2022/09/10 07:26:18;;;;;;;1.95;1.85;;;21.30;99.90;;;;;;5033266;28;20414;-66
2022/09/10 07:28:45;;;;;;;4.75;2.22;;;21.20;99.90;;;;;;5033565;28;20026;-71
2022/09/10 07:31:28;;;;;;;2.75;2.35;;;21.20;99.90;;;;;;5015697;28;20028;-68
2022/09/10 07:33:59;;;;;;;5.03;2.60;;;21.20;99.90;;;;;;5033100;28;20038;-71
2022/09/10 07:36:26;;;;;;;3.72;2.42;;;;;;;;;;5015236;28;20485;-68
2022/09/10 07:38:53;;;;;;;8.40;2.83;;;;;;;;;;5033374;28;20486;-69
2022/09/10 07:41:19;;;;;;;6.00;2.42;;;;;;;;;;5033129;28;20457;-72
2022/09/10 07:43:46;;;;;;;3.97;2.40;;;;;;;;;;5033293;28;20025;-70
2022/09/10 07:46:19;;;;;;;8.10;4.20;;;;;;;;;;5032881;28;20021;-70
2022/09/10 07:48:47;;;;;;;8.73;4.60;;;21.10;99.90;;;;;;5033376;28;20061;-68
2022/09/10 07:51:17;;;;;;;6.97;3.20;;;21.20;99.90;;;;;;5015552;28;20075;-65
2022/09/10 07:53:44;;;;;;;5.10;3.25;;;21.30;99.90;;;;;;5033381;28;20370;-68
2022/09/10 07:56:10;;;;;;;4.50;3.00;;;21.20;99.90;;;;;;5015106;28;20057;-65
2022/09/10 07:58:37;;;;;;;5.93;2.80;;;21.20;99.90;;;;;;5015427;28;20040;-63
2022/09/10 08:01:11;;;;;;;5.30;2.78;;;21.20;99.90;;;;;;5033145;28;20108;-64
2022/09/10 08:03:38;;;;;;;10.00;3.55;;;21.40;99.90;;;;;;5015393;28;20459;-65
2022/09/10 08:06:06;;;;;;;5.00;3.25;;;21.60;99.90;;;;;;5033000;28;20026;-64
2022/09/10 08:08:34;;;;;;;3.47;3.13;;;22.10;99.90;;;;;;5032793;28;20040;-68
2022/09/10 08:11:04;;;;;;;5.03;3.35;;;22.00;99.90;;;;;;5032991;28;20021;-66
2022/09/10 08:13:31;;;;;;;3.45;3.15;;;22.10;99.90;;;;;;5032866;28;20127;-64
2022/09/10 08:15:57;;;;;;;4.95;3.10;;;21.90;99.90;;;;;;5032994;28;20021;-65
2022/09/10 08:18:23;;;;;;;4.63;2.80;;;21.60;99.90;;;;;;5033050;28;20382;-65
2022/09/10 08:20:54;;;;;;;3.85;2.38;;;21.70;99.90;;;;;;5014973;28;20029;-65
2022/09/10 08:23:21;;;;;;;7.93;2.83;;;22.00;99.90;;;;;;5032507;28;20417;-65
2022/09/10 08:25:50;;;;;;;3.25;2.22;;;22.20;99.90;;;;;;5031614;28;20458;-66
2022/09/10 08:28:18;;;;;;;5.30;2.13;;;22.60;99.90;;;;;;5032519;28;20116;-65
2022/09/10 08:30:56;;;;;;;4.38;2.20;;;22.80;99.90;;;;;;5031663;28;20025;-64
2022/09/10 08:33:22;;;;;;;2.35;2.15;;;;;;;;;;5032639;28;20033;-64
2022/09/10 08:35:56;;;;;;;6.32;2.17;;;;;;;;;;5032765;28;20040;-66
2022/09/10 08:38:23;;;;;;;1.92;1.80;;;;;;;;;;5032578;28;20022;-64
2022/09/10 08:40:50;;;;;;;3.35;1.70;;;22.60;99.90;;;;;;5032636;28;20021;-64
2022/09/10 08:43:18;;;;;;;2.25;1.60;;;22.50;99.90;;;;;;5015007;28;20432;-65
2022/09/10 08:45:49;;;;;;;3.58;2.00;;;22.90;99.90;;;;;;5032483;28;20374;-65
2022/09/10 08:48:22;;;;;;;2.55;1.73;;;23.20;99.90;;;;;;5032601;28;20386;-65
2022/09/10 08:51:11;;;;;;;3.95;1.83;;;23.10;99.90;;;;;;5032681;28;20108;-65
2022/09/10 08:53:58;;;;;;;5.35;1.60;;;23.00;99.90;;;;;;5032722;28;20033;-66
2022/09/10 08:56:26;;;;;;;3.45;1.40;;;22.80;99.90;;;;;;5032601;28;20037;-64
2022/09/10 08:59:04;;;;;;;3.83;1.80;;;22.80;99.90;;;;;;5013755;28;20030;-63
2022/09/10 09:01:54;;;;;;;2.45;1.90;;;22.50;99.90;;;;;;5032507;28;20025;-62
2022/09/10 09:04:38;;;;;;;2.67;2.25;;;22.30;99.90;;;;;;5032588;28;20083;-63
2022/09/10 09:07:12;;;;;;;5.45;2.35;;;22.30;99.90;;;;;;5032620;28;20040;-63
2022/09/10 09:09:37;;;;;;;3.10;1.80;;;22.20;99.90;;;;;;5032652;28;20550;-63
2022/09/10 09:12:19;;;;;;;6.07;1.92;;;22.90;99.90;;;;;;5014749;28;20104;-64
2022/09/10 09:15:16;;;;;;;4.68;1.65;;;23.60;99.90;;;;;;5034182;28;20498;-65
2022/09/10 09:17:54;;;;;;;4.90;1.60;;;23.50;99.90;;;;;;5036203;28;20112;-64
2022/09/10 09:20:45;;;;;;;2.28;1.40;;;23.50;99.90;;;;;;5033088;28;20021;-63
2022/09/10 09:23:20;;;;;;;1.52;1.13;;;23.50;99.90;;;;;;5034734;28;20033;-65
2022/09/10 09:25:53;;;;;;;1.50;1.40;;;23.50;99.90;;;;;;5035134;28;20033;-66
2022/09/10 09:28:27;;;;;;;4.60;1.10;;;23.90;99.90;;;;;;5032736;28;20033;-63
2022/09/10 09:30:55;;;;;;;1.48;1.38;;;24.00;99.90;;;;;;5047617;28;20378;-66
2022/09/10 09:33:24;;;;;;;5.68;1.42;;;24.00;99.90;;;;;;5034437;28;20084;-64
2022/09/10 09:36:05;;;;;;;2.05;1.45;;;23.90;99.90;;;;;;5017196;28;20079;-64
2022/09/10 09:38:40;;;;;;;4.68;1.73;;;23.50;99.90;;;;;;5033553;28;20528;-63
2022/09/10 09:41:37;;;;;;;2.13;1.25;;;23.90;99.90;;;;;;5032219;28;20033;-63
2022/09/10 09:44:10;;;;;;;1.48;1.00;;;24.40;99.90;;;;;;5006632;28;20037;-67
2022/09/10 09:46:37;;;;;;;3.78;1.20;;;23.90;99.90;;;;;;5016265;28;20026;-65
2022/09/10 09:49:03;;;;;;;3.67;1.30;;;23.70;99.90;;;;;;5047047;28;20053;-62
2022/09/10 09:51:34;;;;;;;1.15;1.05;;;24.00;99.90;;;;;;5016291;28;20025;-66
2022/09/10 09:54:06;;;;;;;3.67;1.35;;;24.20;99.90;;;;;;5034010;28;20021;-67
2022/09/10 09:56:46;;;;;;;1.42;1.10;;;24.30;99.90;;;;;;5034171;28;20028;-63
2022/09/10 09:59:27;;;;;;;2.00;1.10;;;24.80;99.90;;;;;;5031920;28;20029;-70
2022/09/10 10:01:58;;;;;;;0.98;0.90;;;25.10;99.90;;;;;;5017257;28;20120;-68
2022/09/10 10:04:29;;;;;;;2.53;1.00;;;24.90;99.90;;;;;;5017439;28;20033;-66
2022/09/10 10:06:58;;;;;;;6.32;2.03;;;25.20;99.90;;;;;;5035210;28;20040;-67
2022/09/10 10:09:32;;;;;;;2.35;1.20;;;25.30;99.90;;;;;;5035207;28;20026;-67
2022/09/10 10:12:03;;;;;;;3.42;1.38;;;25.20;99.90;;;;;;5017315;28;20065;-67
2022/09/10 10:14:40;;;;;;;2.80;1.50;;;25.20;99.90;;;;;;5034931;28;20103;-67
2022/09/10 10:17:24;;;;;;;3.92;1.77;;;24.90;99.90;;;;;;5017165;28;20049;-67
2022/09/10 10:19:57;;;;;;;2.97;1.48;;;25.10;99.90;;;;;;5017112;28;20367;-66
2022/09/10 10:22:29;;;;;;;2.10;1.23;;;24.90;99.90;;;;;;5034528;28;20029;-69
2022/09/10 10:24:55;;;;;;;2.90;1.20;;;24.80;99.90;;;;;;5035032;28;20033;-68
2022/09/10 10:27:40;;;;;;;5.18;1.92;;;25.40;99.90;;;;;;5015100;28;20033;-67
2022/09/10 10:30:17;;;;;;;3.22;1.10;;;26.20;99.90;;;;;;5016602;28;20041;-68
2022/09/10 10:32:45;;;;;;;5.13;1.10;;;25.70;99.90;;;;;;5034020;28;20367;-66
2022/09/10 10:35:40;;;;;;;0.95;0.95;;;25.20;99.90;;;;;;5016802;28;20030;-67
2022/09/10 10:38:36;;;;;;;4.43;1.33;;;24.70;99.90;;;;;;5016682;28;20038;-66
2022/09/10 10:41:17;;;;;;;1.92;1.27;;;24.40;99.90;;;;;;5034567;28;20033;-65
2022/09/10 10:43:54;;;;;;;1.20;1.15;;;24.90;99.90;;;;;;5034442;28;20458;-69
2022/09/10 10:46:23;;;;;;;6.32;1.20;;;24.90;99.90;;;;;;5033742;28;20092;-71
2022/09/10 10:49:10;;;;;;;10.20;1.45;;;24.80;99.90;;;;;;5016325;28;20044;-70
2022/09/10 10:51:59;;;;;;;2.95;1.20;;;;;;;;;;5034131;28;20118;-68
2022/09/10 10:54:57;;;;;;;2.05;1.10;;;26.10;99.90;;;;;;5034072;28;20064;-68
2022/09/10 10:57:58;;;;;;;3.60;1.75;;;27.50;99.90;;;;;;4980424;28;20038;-67
2022/09/10 11:00:26;;;;;;;2.63;1.23;;;28.70;99.90;;;;;;5009698;28;20076;-66
2022/09/10 11:03:09;;;;;;;1.00;1.00;;;29.90;99.90;;;;;;5034010;28;20083;-68
2022/09/10 11:05:47;;;;;;;1.35;1.08;;;29.70;99.90;;;;;;5034130;28;20466;-67
2022/09/10 11:08:36;;;;;;;2.72;0.93;;;30.20;99.90;;;;;;5033042;28;20108;-70
2022/09/10 11:11:07;;;;;;;4.90;1.27;;;31.30;99.90;;;;;;5022974;28;20091;-67
2022/09/10 11:14:02;;;;;;;7.07;1.13;;;29.30;99.90;;;;;;5015954;28;20053;-65
2022/09/10 11:16:40;;;;;;;1.90;1.25;;;27.60;99.90;;;;;;5011711;28;20406;-67
2022/09/10 11:19:35;;;;;;;1.88;1.50;;;26.30;99.90;;;;;;5033788;28;20033;-70
2022/09/10 11:22:24;;;;;;;3.42;1.20;;;27.20;99.90;;;;;;5030903;28;20536;-63
2022/09/10 11:24:55;;;;;;;1.42;1.33;;;29.10;99.90;;;;;;5033460;28;20021;-67
2022/09/10 11:27:36;;;;;;;5.38;1.20;;;30.80;99.90;;;;;;5016111;28;20038;-68
2022/09/10 11:30:08;;;;;;;2.45;1.52;;;31.70;99.90;;;;;;5033861;28;20041;-66
2022/09/10 11:32:47;;;;;;;2.30;1.40;;;33.30;99.90;;;;;;5033833;28;20038;-69
2022/09/10 11:35:31;;;;;;;2.28;1.17;;;33.10;96.40;;;;;;5015887;28;20059;-65
2022/09/10 11:38:24;;;;;;;2.72;1.10;;;32.10;97.90;;;;;;5033184;28;20044;-69
2022/09/10 11:41:05;;;;;;;1.88;1.20;;;30.10;99.10;;;;;;5048917;28;20030;-65
2022/09/10 11:44:01;;;;;;;6.97;1.00;;;28.90;99.90;;;;;;5033831;28;20490;-66
2022/09/10 11:46:41;;;;;;;3.47;1.27;;;30.70;99.90;;;;;;5033216;28;20056;-68
2022/09/10 11:49:17;;;;;;;3.72;0.93;;;32.10;98.60;;;;;;5033492;28;20036;-66
2022/09/10 11:51:44;;;;;;;1.92;1.00;;;32.90;96.50;;;;;;5033437;28;20025;-68
2022/09/10 11:54:23;;;;;;;2.92;0.80;;;32.60;96.20;;;;;;5033392;28;20052;-68
2022/09/10 11:57:10;;;;;;;2.30;0.90;;;32.40;96.30;;;;;;5032347;28;20069;-70
2022/09/10 12:00:08;;;;;;;2.75;0.80;;;31.60;95.50;;;;;;5030220;28;20029;-70
2022/09/10 12:02:56;;;;;;;1.98;1.13;;;33.00;92.70;;;;;;5029803;28;20108;-69
2022/09/10 12:05:39;;;;;;;2.80;0.98;;;33.40;92.70;;;;;;5030868;28;20075;-69
2022/09/10 12:08:31;;;;;;;2.38;1.10;;;33.20;93.80;;;;;;5031499;28;20470;-63
2022/09/10 12:11:28;;;;;;;2.35;0.85;;;33.30;92.40;;;;;;5033228;28;20056;-69
2022/09/10 12:13:56;;;;;;;2.65;0.80;;;33.90;91.40;;;;;;5032700;28;20052;-67
2022/09/10 12:16:37;;;;;;;2.03;0.85;;;33.50;90.80;;;;;;5033019;28;20036;-69
2022/09/10 12:19:22;;;;;;;2.28;1.02;;;32.50;91.10;;;;;;5033091;28;20036;-67
2022/09/10 12:22:00;;;;;;;2.53;1.20;;;30.20;94.00;;;;;;5033312;28;20065;-69
2022/09/10 12:24:38;;;;;;;1.70;0.80;;;30.00;94.30;;;;;;5033038;28;20130;-67
2022/09/10 12:27:05;;;;;;;2.70;0.85;;;31.70;94.00;;;;;;5047017;28;20033;-70
2022/09/10 12:29:35;;;;;;;3.95;0.75;;;32.10;93.30;;;;;;5031599;28;20044;-67
2022/09/10 12:32:07;;;;;;;3.72;0.90;;;32.20;94.10;;;;;;5029798;28;20060;-72
2022/09/10 12:34:35;;;;;;;4.25;1.48;;;32.00;99.90;;;;;;5032850;28;20036;-66
2022/09/10 12:37:03;;;;;;;7.72;1.58;;;34.00;92.60;;;;;;5032798;28;20029;-68
2022/09/10 12:39:30;;;;;;;6.05;1.35;;;34.90;92.20;;;;;;5030628;28;20481;-70
2022/09/10 12:42:24;;;;;;;2.15;0.82;;;35.30;90.70;;;;;;5032325;28;20046;-69
2022/09/10 12:44:50;;;;;;;3.72;1.20;;;34.10;90.20;;;;;;5033195;28;20036;-69
2022/09/10 12:47:16;;;;;;;5.80;1.23;;;35.30;86.90;;;;;;5032719;28;20402;-66
2022/09/10 12:49:46;;;;;;;1.35;0.85;;;35.20;87.10;;;;;;5034573;28;20057;-67
2022/09/10 12:52:16;;;;;;;1.10;0.80;;;35.60;87.10;;;;;;5033882;28;20025;-67
2022/09/10 12:55:27;;;;;;;2.65;1.08;;;35.30;84.90;;;;;;5036003;28;20359;-67
2022/09/10 12:58:10;;;;;;;1.45;1.08;;;35.50;82.80;;;;;;5036069;28;20068;-68
2022/09/10 13:01:00;;;;;;;3.20;1.17;;;35.50;85.20;;;;;;5036448;28;20022;-69
2022/09/10 13:03:28;;;;;;;1.70;0.90;;;35.00;83.70;;;;;;5036178;28;20613;-68
2022/09/10 13:06:00;;;;;;;1.58;0.80;;;32.90;84.20;;;;;;5035948;28;20033;-66
2022/09/10 13:08:42;;;;;;;1.95;0.98;;;33.10;85.10;;;;;;5036336;28;20061;-67
2022/09/10 13:11:20;;;;;;;3.03;0.93;;;34.20;85.50;;;;;;5036064;28;20034;-67
2022/09/10 13:14:04;;;;;;;3.97;1.00;;;34.00;84.20;;;;;;5044782;28;20414;-67
2022/09/10 13:16:29;;;;;;;1.23;0.80;;;32.30;85.20;;;;;;5015050;28;20057;-65
2022/09/10 13:19:18;;;;;;;1.90;0.90;;;31.00;90.40;;;;;;5014646;28;20061;-66
2022/09/10 13:21:43;;;;;;;3.95;1.00;;;33.60;86.70;;;;;;5013193;28;20021;-65
2022/09/10 13:24:35;;;;;;;1.17;0.95;;;33.20;88.20;;;;;;5014923;28;20034;-67
2022/09/10 13:27:18;;;;;;;1.17;1.08;;;33.90;89.90;;;;;;5013209;28;20112;-70
2022/09/10 13:30:08;;;;;;;3.72;0.95;;;;;;;;;;5016080;28;20034;-70
2022/09/10 13:32:42;;;;;;;1.10;0.95;;;37.60;79.10;;;;;;5012696;28;20060;-68
2022/09/10 13:35:22;;;;;;;1.75;0.80;;;37.60;78.60;;;;;;5014866;28;20042;-70
2022/09/10 13:38:25;;;;;;;1.10;0.80;;;37.80;78.00;;;;;;5015901;28;20041;-70
2022/09/10 13:40:59;;;;;;;1.05;0.65;;;37.40;76.50;;;;;;5016003;28;20076;-72
2022/09/10 13:44:03;;;;;;;3.30;0.70;;;37.10;79.10;;;;;;5015960;28;20056;-68
2022/09/10 13:46:41;;;;;;;0.82;0.80;;;36.50;78.00;;;;;;5015816;28;20045;-68
2022/09/10 13:49:15;;;;;;;0.70;0.70;;;37.50;77.00;;;;;;5014604;28;20045;-69